sensor_id;sensor_type;location;lat;lon;timestamp;temperature;humidity
38936;DHT22;66589;47.458;9.644;2023-03-23T00:01:56;13.20;64.60
38936;DHT22;66589;47.458;9.644;2023-03-23T00:04:22;13.10;65.80
38936;DHT22;66589;47.458;9.644;2023-03-23T00:06:50;13.00;66.10
38936;DHT22;66589;47.458;9.644;2023-03-23T00:09:15;12.90;67.00
38936;DHT22;66589;47.458;9.644;2023-03-23T00:11:42;12.80;67.40
38936;DHT22;66589;47.458;9.644;2023-03-23T00:14:10;12.80;67.40
38936;DHT22;66589;47.458;9.644;2023-03-23T00:16:39;12.70;67.70
38936;DHT22;66589;47.458;9.644;2023-03-23T00:19:08;12.60;68.10
38936;DHT22;66589;47.458;9.644;2023-03-23T00:21:36;12.50;68.30
38936;DHT22;66589;47.458;9.644;2023-03-23T00:26:30;12.50;68.40
38936;DHT22;66589;47.458;9.644;2023-03-23T00:29:05;12.40;69.00
38936;DHT22;66589;47.458;9.644;2023-03-23T00:31:32;12.30;69.40
38936;DHT22;66589;47.458;9.644;2023-03-23T00:34:02;12.30;69.40
38936;DHT22;66589;47.458;9.644;2023-03-23T00:36:31;12.30;69.70
38936;DHT22;66589;47.458;9.644;2023-03-23T00:38:57;12.20;69.60
38936;DHT22;66589;47.458;9.644;2023-03-23T00:41:25;12.10;69.90
38936;DHT22;66589;47.458;9.644;2023-03-23T00:43:53;12.00;70.40
38936;DHT22;66589;47.458;9.644;2023-03-23T00:46:19;11.90;70.50
38936;DHT22;66589;47.458;9.644;2023-03-23T00:48:46;11.90;70.80
38936;DHT22;66589;47.458;9.644;2023-03-23T00:51:12;11.80;71.40
38936;DHT22;66589;47.458;9.644;2023-03-23T00:53:41;11.80;71.60
38936;DHT22;66589;47.458;9.644;2023-03-23T00:56:07;11.70;71.60
38936;DHT22;66589;47.458;9.644;2023-03-23T00:58:34;11.70;71.00
38936;DHT22;66589;47.458;9.644;2023-03-23T01:00:59;11.70;71.50
38936;DHT22;66589;47.458;9.644;2023-03-23T01:03:26;11.70;71.50
38936;DHT22;66589;47.458;9.644;2023-03-23T01:05:53;11.60;71.60
38936;DHT22;66589;47.458;9.644;2023-03-23T01:08:21;11.60;71.30
38936;DHT22;66589;47.458;9.644;2023-03-23T01:10:47;11.70;71.30
38936;DHT22;66589;47.458;9.644;2023-03-23T01:13:14;11.70;71.50
38936;DHT22;66589;47.458;9.644;2023-03-23T01:15:41;11.70;72.10
38936;DHT22;66589;47.458;9.644;2023-03-23T01:18:08;11.70;71.60
38936;DHT22;66589;47.458;9.644;2023-03-23T01:20:35;11.70;71.60
38936;DHT22;66589;47.458;9.644;2023-03-23T01:23:02;11.70;71.80
38936;DHT22;66589;47.458;9.644;2023-03-23T01:25:30;11.70;71.90
38936;DHT22;66589;47.458;9.644;2023-03-23T01:27:57;11.60;72.30
38936;DHT22;66589;47.458;9.644;2023-03-23T01:30:24;11.60;72.30
38936;DHT22;66589;47.458;9.644;2023-03-23T01:32:50;11.50;72.70
38936;DHT22;66589;47.458;9.644;2023-03-23T01:35:16;11.50;72.60
38936;DHT22;66589;47.458;9.644;2023-03-23T01:37:42;11.50;72.60
38936;DHT22;66589;47.458;9.644;2023-03-23T01:40:09;11.40;72.30
38936;DHT22;66589;47.458;9.644;2023-03-23T01:42:36;11.40;72.60
38936;DHT22;66589;47.458;9.644;2023-03-23T01:45:23;11.40;72.60
38936;DHT22;66589;47.458;9.644;2023-03-23T01:47:54;11.40;72.70
38936;DHT22;66589;47.458;9.644;2023-03-23T01:50:23;11.40;72.50
38936;DHT22;66589;47.458;9.644;2023-03-23T01:52:51;11.40;72.90
38936;DHT22;66589;47.458;9.644;2023-03-23T01:55:18;11.40;73.20
38936;DHT22;66589;47.458;9.644;2023-03-23T01:57:45;11.30;73.40
38936;DHT22;66589;47.458;9.644;2023-03-23T02:00:11;11.20;73.60
38936;DHT22;66589;47.458;9.644;2023-03-23T02:02:42;11.20;74.30
38936;DHT22;66589;47.458;9.644;2023-03-23T02:05:18;11.20;73.70
38936;DHT22;66589;47.458;9.644;2023-03-23T02:07:46;11.30;73.00
38936;DHT22;66589;47.458;9.644;2023-03-23T02:10:13;11.40;73.20
38936;DHT22;66589;47.458;9.644;2023-03-23T02:12:39;11.40;73.70
38936;DHT22;66589;47.458;9.644;2023-03-23T02:15:05;11.40;73.90
38936;DHT22;66589;47.458;9.644;2023-03-23T02:17:33;11.40;73.40
38936;DHT22;66589;47.458;9.644;2023-03-23T02:41:24;11.40;73.60
38936;DHT22;66589;47.458;9.644;2023-03-23T02:43:52;11.40;74.10
38936;DHT22;66589;47.458;9.644;2023-03-23T02:46:19;11.40;73.80
38936;DHT22;66589;47.458;9.644;2023-03-23T02:48:47;11.40;74.20
38936;DHT22;66589;47.458;9.644;2023-03-23T02:51:18;11.40;74.40
38936;DHT22;66589;47.458;9.644;2023-03-23T02:53:45;11.40;74.50
38936;DHT22;66589;47.458;9.644;2023-03-23T02:56:14;11.40;74.70
38936;DHT22;66589;47.458;9.644;2023-03-23T02:58:40;11.30;74.10
38936;DHT22;66589;47.458;9.644;2023-03-23T03:04:15;11.30;73.70
38936;DHT22;66589;47.458;9.644;2023-03-23T03:12:45;11.40;73.00
38936;DHT22;66589;47.458;9.644;2023-03-23T03:15:27;11.40;72.70
38936;DHT22;66589;47.458;9.644;2023-03-23T03:20:35;11.50;73.60
38936;DHT22;66589;47.458;9.644;2023-03-23T03:23:04;11.40;74.10
38936;DHT22;66589;47.458;9.644;2023-03-23T03:25:33;11.30;75.30
38936;DHT22;66589;47.458;9.644;2023-03-23T03:28:00;11.30;76.00
38936;DHT22;66589;47.458;9.644;2023-03-23T03:30:30;11.20;76.90
38936;DHT22;66589;47.458;9.644;2023-03-23T03:32:57;11.20;77.20
38936;DHT22;66589;47.458;9.644;2023-03-23T03:35:26;11.20;77.40
38936;DHT22;66589;47.458;9.644;2023-03-23T03:37:52;11.20;77.60
38936;DHT22;66589;47.458;9.644;2023-03-23T03:40:20;11.20;77.50
38936;DHT22;66589;47.458;9.644;2023-03-23T03:42:46;11.20;77.50
38936;DHT22;66589;47.458;9.644;2023-03-23T03:45:15;11.20;77.80
38936;DHT22;66589;47.458;9.644;2023-03-23T03:47:40;11.20;77.60
38936;DHT22;66589;47.458;9.644;2023-03-23T03:50:06;11.20;78.00
38936;DHT22;66589;47.458;9.644;2023-03-23T03:52:33;11.20;78.10
38936;DHT22;66589;47.458;9.644;2023-03-23T03:54:58;11.10;77.90
38936;DHT22;66589;47.458;9.644;2023-03-23T03:57:24;11.10;78.40
38936;DHT22;66589;47.458;9.644;2023-03-23T03:59:50;11.10;78.60
38936;DHT22;66589;47.458;9.644;2023-03-23T04:02:17;11.10;78.80
38936;DHT22;66589;47.458;9.644;2023-03-23T04:04:46;11.10;79.00
38936;DHT22;66589;47.458;9.644;2023-03-23T04:07:13;11.10;78.80
38936;DHT22;66589;47.458;9.644;2023-03-23T04:09:40;11.10;78.50
38936;DHT22;66589;47.458;9.644;2023-03-23T04:12:06;11.20;78.80
38936;DHT22;66589;47.458;9.644;2023-03-23T04:14:32;11.20;78.70
38936;DHT22;66589;47.458;9.644;2023-03-23T04:16:57;11.10;78.80
38936;DHT22;66589;47.458;9.644;2023-03-23T04:19:24;11.10;79.40
38936;DHT22;66589;47.458;9.644;2023-03-23T04:21:50;11.00;79.90
38936;DHT22;66589;47.458;9.644;2023-03-23T04:24:17;11.00;80.10
38936;DHT22;66589;47.458;9.644;2023-03-23T04:26:47;11.00;80.00
38936;DHT22;66589;47.458;9.644;2023-03-23T04:29:12;11.00;78.90
38936;DHT22;66589;47.458;9.644;2023-03-23T04:31:38;11.00;77.80
38936;DHT22;66589;47.458;9.644;2023-03-23T04:34:06;11.00;77.90
38936;DHT22;66589;47.458;9.644;2023-03-23T04:36:31;11.10;78.00
38936;DHT22;66589;47.458;9.644;2023-03-23T04:38:59;11.10;77.60
38936;DHT22;66589;47.458;9.644;2023-03-23T04:41:26;11.20;77.50
38936;DHT22;66589;47.458;9.644;2023-03-23T04:43:52;11.30;72.90
38936;DHT22;66589;47.458;9.644;2023-03-23T04:46:19;11.50;71.30
38936;DHT22;66589;47.458;9.644;2023-03-23T04:48:47;11.80;68.40
38936;DHT22;66589;47.458;9.644;2023-03-23T04:51:12;12.20;66.50
38936;DHT22;66589;47.458;9.644;2023-03-23T04:53:39;12.40;66.10
38936;DHT22;66589;47.458;9.644;2023-03-23T04:56:06;12.60;64.70
38936;DHT22;66589;47.458;9.644;2023-03-23T04:58:32;12.70;64.20
38936;DHT22;66589;47.458;9.644;2023-03-23T05:01:01;12.90;62.90
38936;DHT22;66589;47.458;9.644;2023-03-23T05:03:27;13.10;62.20
38936;DHT22;66589;47.458;9.644;2023-03-23T05:05:53;13.20;60.80
38936;DHT22;66589;47.458;9.644;2023-03-23T05:08:20;13.30;61.30
38936;DHT22;66589;47.458;9.644;2023-03-23T05:10:56;13.40;61.00
38936;DHT22;66589;47.458;9.644;2023-03-23T05:13:23;13.40;60.60
38936;DHT22;66589;47.458;9.644;2023-03-23T05:15:49;13.50;60.60
38936;DHT22;66589;47.458;9.644;2023-03-23T05:18:15;13.50;60.80
38936;DHT22;66589;47.458;9.644;2023-03-23T05:20:41;13.50;60.90
38936;DHT22;66589;47.458;9.644;2023-03-23T05:23:08;13.50;60.80
38936;DHT22;66589;47.458;9.644;2023-03-23T05:25:35;13.50;60.90
38936;DHT22;66589;47.458;9.644;2023-03-23T05:28:10;13.40;61.70
38936;DHT22;66589;47.458;9.644;2023-03-23T05:30:38;13.40;62.00
38936;DHT22;66589;47.458;9.644;2023-03-23T05:33:04;13.30;62.80
38936;DHT22;66589;47.458;9.644;2023-03-23T05:35:31;13.20;62.50
38936;DHT22;66589;47.458;9.644;2023-03-23T05:37:57;13.30;61.50
38936;DHT22;66589;47.458;9.644;2023-03-23T05:40:23;13.40;60.40
38936;DHT22;66589;47.458;9.644;2023-03-23T05:42:51;13.60;60.20
38936;DHT22;66589;47.458;9.644;2023-03-23T05:45:18;13.70;58.20
38936;DHT22;66589;47.458;9.644;2023-03-23T05:47:43;13.80;59.60
38936;DHT22;66589;47.458;9.644;2023-03-23T05:50:10;13.70;61.20
38936;DHT22;66589;47.458;9.644;2023-03-23T05:52:36;13.60;62.10
38936;DHT22;66589;47.458;9.644;2023-03-23T05:55:03;13.50;63.00
38936;DHT22;66589;47.458;9.644;2023-03-23T05:57:30;13.40;63.20
38936;DHT22;66589;47.458;9.644;2023-03-23T05:59:56;13.20;64.20
38936;DHT22;66589;47.458;9.644;2023-03-23T06:02:23;13.10;64.30
38936;DHT22;66589;47.458;9.644;2023-03-23T06:04:50;13.00;65.10
38936;DHT22;66589;47.458;9.644;2023-03-23T06:07:16;13.00;64.30
38936;DHT22;66589;47.458;9.644;2023-03-23T06:09:42;13.00;64.60
38936;DHT22;66589;47.458;9.644;2023-03-23T06:12:08;13.00;64.20
38936;DHT22;66589;47.458;9.644;2023-03-23T06:14:35;13.00;64.70
38936;DHT22;66589;47.458;9.644;2023-03-23T06:17:02;13.00;64.50
38936;DHT22;66589;47.458;9.644;2023-03-23T06:19:28;13.10;65.00
38936;DHT22;66589;47.458;9.644;2023-03-23T06:21:56;13.10;64.40
38936;DHT22;66589;47.458;9.644;2023-03-23T06:24:22;13.10;63.90
38936;DHT22;66589;47.458;9.644;2023-03-23T06:26:47;13.10;64.30
38936;DHT22;66589;47.458;9.644;2023-03-23T06:29:15;13.10;64.70
38936;DHT22;66589;47.458;9.644;2023-03-23T06:31:43;13.20;63.10
38936;DHT22;66589;47.458;9.644;2023-03-23T06:34:10;13.30;61.90
38936;DHT22;66589;47.458;9.644;2023-03-23T06:36:37;13.50;61.90
38936;DHT22;66589;47.458;9.644;2023-03-23T06:39:04;13.60;60.90
38936;DHT22;66589;47.458;9.644;2023-03-23T06:41:31;13.70;59.50
38936;DHT22;66589;47.458;9.644;2023-03-23T06:43:57;13.90;58.20
38936;DHT22;66589;47.458;9.644;2023-03-23T06:46:23;14.00;58.70
38936;DHT22;66589;47.458;9.644;2023-03-23T06:48:49;14.10;58.80
38936;DHT22;66589;47.458;9.644;2023-03-23T06:51:16;14.20;59.40
38936;DHT22;66589;47.458;9.644;2023-03-23T06:53:43;14.20;58.90
38936;DHT22;66589;47.458;9.644;2023-03-23T06:56:08;14.20;59.20
38936;DHT22;66589;47.458;9.644;2023-03-23T06:58:34;14.20;58.70
38936;DHT22;66589;47.458;9.644;2023-03-23T07:01:00;14.20;59.30
38936;DHT22;66589;47.458;9.644;2023-03-23T07:03:26;14.20;58.60
38936;DHT22;66589;47.458;9.644;2023-03-23T07:05:53;14.30;59.30
38936;DHT22;66589;47.458;9.644;2023-03-23T07:08:20;14.40;57.60
38936;DHT22;66589;47.458;9.644;2023-03-23T07:10:46;14.50;58.00
38936;DHT22;66589;47.458;9.644;2023-03-23T07:13:12;14.60;58.00
38936;DHT22;66589;47.458;9.644;2023-03-23T07:15:39;14.70;57.40
38936;DHT22;66589;47.458;9.644;2023-03-23T07:18:04;14.90;56.20
38936;DHT22;66589;47.458;9.644;2023-03-23T07:20:30;15.00;57.70
38936;DHT22;66589;47.458;9.644;2023-03-23T07:22:56;15.10;59.10
38936;DHT22;66589;47.458;9.644;2023-03-23T07:25:22;15.20;58.80
38936;DHT22;66589;47.458;9.644;2023-03-23T07:27:48;15.30;59.60
38936;DHT22;66589;47.458;9.644;2023-03-23T07:30:14;15.40;59.10
38936;DHT22;66589;47.458;9.644;2023-03-23T07:32:40;15.60;59.10
38936;DHT22;66589;47.458;9.644;2023-03-23T07:35:07;15.80;59.10
38936;DHT22;66589;47.458;9.644;2023-03-23T07:37:34;16.00;59.30
38936;DHT22;66589;47.458;9.644;2023-03-23T07:40:01;16.10;59.90
38936;DHT22;66589;47.458;9.644;2023-03-23T07:42:40;16.20;59.80
38936;DHT22;66589;47.458;9.644;2023-03-23T07:45:07;16.30;59.90
38936;DHT22;66589;47.458;9.644;2023-03-23T07:47:33;16.50;61.40
38936;DHT22;66589;47.458;9.644;2023-03-23T07:49:58;16.60;59.20
38936;DHT22;66589;47.458;9.644;2023-03-23T07:52:24;16.70;59.50
38936;DHT22;66589;47.458;9.644;2023-03-23T07:54:50;16.80;58.60
38936;DHT22;66589;47.458;9.644;2023-03-23T07:57:15;16.90;59.20
38936;DHT22;66589;47.458;9.644;2023-03-23T07:59:41;17.10;58.40
38936;DHT22;66589;47.458;9.644;2023-03-23T08:02:08;17.20;58.10
38936;DHT22;66589;47.458;9.644;2023-03-23T08:04:35;17.30;58.10
38936;DHT22;66589;47.458;9.644;2023-03-23T08:07:03;17.40;56.20
38936;DHT22;66589;47.458;9.644;2023-03-23T08:09:30;17.40;56.30
38936;DHT22;66589;47.458;9.644;2023-03-23T08:11:56;17.50;57.60
38936;DHT22;66589;47.458;9.644;2023-03-23T08:14:22;17.50;56.00
38936;DHT22;66589;47.458;9.644;2023-03-23T08:16:48;17.60;57.90
38936;DHT22;66589;47.458;9.644;2023-03-23T08:19:14;17.60;59.30
38936;DHT22;66589;47.458;9.644;2023-03-23T08:21:40;17.70;59.40
38936;DHT22;66589;47.458;9.644;2023-03-23T08:24:06;18.00;55.00
38936;DHT22;66589;47.458;9.644;2023-03-23T08:26:32;18.10;54.20
38936;DHT22;66589;47.458;9.644;2023-03-23T08:28:57;18.40;56.00
38936;DHT22;66589;47.458;9.644;2023-03-23T08:31:23;18.80;53.80
38936;DHT22;66589;47.458;9.644;2023-03-23T08:33:50;19.20;52.10
38936;DHT22;66589;47.458;9.644;2023-03-23T08:36:16;19.50;54.30
38936;DHT22;66589;47.458;9.644;2023-03-23T08:38:41;19.80;52.00
38936;DHT22;66589;47.458;9.644;2023-03-23T08:41:09;20.00;51.80
38936;DHT22;66589;47.458;9.644;2023-03-23T08:43:35;20.10;50.30
38936;DHT22;66589;47.458;9.644;2023-03-23T08:46:01;20.20;47.90
38936;DHT22;66589;47.458;9.644;2023-03-23T08:48:32;20.20;47.70
38936;DHT22;66589;47.458;9.644;2023-03-23T08:50:59;20.30;47.30
38936;DHT22;66589;47.458;9.644;2023-03-23T08:53:26;20.40;50.20
38936;DHT22;66589;47.458;9.644;2023-03-23T08:55:55;20.30;50.10
38936;DHT22;66589;47.458;9.644;2023-03-23T08:58:21;20.10;51.20
38936;DHT22;66589;47.458;9.644;2023-03-23T09:00:48;20.20;50.20
38936;DHT22;66589;47.458;9.644;2023-03-23T09:03:13;20.20;49.90
38936;DHT22;66589;47.458;9.644;2023-03-23T09:05:40;20.50;49.60
38936;DHT22;66589;47.458;9.644;2023-03-23T09:08:11;20.60;48.70
38936;DHT22;66589;47.458;9.644;2023-03-23T09:10:38;20.70;48.60
38936;DHT22;66589;47.458;9.644;2023-03-23T09:13:05;20.50;47.30
38936;DHT22;66589;47.458;9.644;2023-03-23T09:15:32;20.50;50.10
38936;DHT22;66589;47.458;9.644;2023-03-23T09:17:58;20.40;51.00
38936;DHT22;66589;47.458;9.644;2023-03-23T09:20:26;20.30;50.00
38936;DHT22;66589;47.458;9.644;2023-03-23T09:22:56;20.20;51.60
38936;DHT22;66589;47.458;9.644;2023-03-23T09:25:24;20.10;50.20
38936;DHT22;66589;47.458;9.644;2023-03-23T09:27:52;20.00;51.40
38936;DHT22;66589;47.458;9.644;2023-03-23T09:30:19;20.00;52.00
38936;DHT22;66589;47.458;9.644;2023-03-23T09:32:46;20.00;50.50
38936;DHT22;66589;47.458;9.644;2023-03-23T09:35:14;20.00;50.60
38936;DHT22;66589;47.458;9.644;2023-03-23T09:37:42;20.10;51.10
38936;DHT22;66589;47.458;9.644;2023-03-23T09:40:16;20.20;50.30
38936;DHT22;66589;47.458;9.644;2023-03-23T09:45:58;20.30;51.30
38936;DHT22;66589;47.458;9.644;2023-03-23T09:51:21;20.50;49.80
38936;DHT22;66589;47.458;9.644;2023-03-23T09:56:52;20.90;49.50
38936;DHT22;66589;47.458;9.644;2023-03-23T10:02:02;20.90;49.50
38936;DHT22;66589;47.458;9.644;2023-03-23T10:04:38;20.90;47.20
38936;DHT22;66589;47.458;9.644;2023-03-23T10:09:46;21.00;48.30
38936;DHT22;66589;47.458;9.644;2023-03-23T10:13:06;20.90;48.60
38936;DHT22;66589;47.458;9.644;2023-03-23T10:15:37;20.90;48.10
38936;DHT22;66589;47.458;9.644;2023-03-23T10:28:48;22.30;44.30
38936;DHT22;66589;47.458;9.644;2023-03-23T10:31:27;22.50;44.20
38936;DHT22;66589;47.458;9.644;2023-03-23T10:33:57;22.70;43.10
38936;DHT22;66589;47.458;9.644;2023-03-23T10:36:35;22.90;42.70
38936;DHT22;66589;47.458;9.644;2023-03-23T10:39:05;23.00;42.10
38936;DHT22;66589;47.458;9.644;2023-03-23T10:41:33;22.90;43.00
38936;DHT22;66589;47.458;9.644;2023-03-23T10:44:19;22.90;43.40
38936;DHT22;66589;47.458;9.644;2023-03-23T10:47:04;22.80;43.70
38936;DHT22;66589;47.458;9.644;2023-03-23T10:55:04;23.00;43.00
38936;DHT22;66589;47.458;9.644;2023-03-23T10:57:32;23.10;42.60
38936;DHT22;66589;47.458;9.644;2023-03-23T11:02:36;23.20;42.80
38936;DHT22;66589;47.458;9.644;2023-03-23T11:07:57;23.60;42.20
38936;DHT22;66589;47.458;9.644;2023-03-23T11:10:27;23.80;41.90
38936;DHT22;66589;47.458;9.644;2023-03-23T11:12:57;24.00;42.50
38936;DHT22;66589;47.458;9.644;2023-03-23T11:15:30;24.30;43.00
38936;DHT22;66589;47.458;9.644;2023-03-23T11:18:04;24.60;41.60
38936;DHT22;66589;47.458;9.644;2023-03-23T11:20:39;24.80;41.00
38936;DHT22;66589;47.458;9.644;2023-03-23T11:23:27;24.80;41.20
38936;DHT22;66589;47.458;9.644;2023-03-23T11:26:10;25.10;41.10
38936;DHT22;66589;47.458;9.644;2023-03-23T11:28:46;25.40;39.40
38936;DHT22;66589;47.458;9.644;2023-03-23T11:31:12;25.10;40.20
38936;DHT22;66589;47.458;9.644;2023-03-23T11:33:56;25.20;39.60
38936;DHT22;66589;47.458;9.644;2023-03-23T11:36:30;25.10;39.20
38936;DHT22;66589;47.458;9.644;2023-03-23T11:38:56;25.00;39.90
38936;DHT22;66589;47.458;9.644;2023-03-23T11:41:23;25.10;40.30
38936;DHT22;66589;47.458;9.644;2023-03-23T11:43:52;24.90;39.80
38936;DHT22;66589;47.458;9.644;2023-03-23T11:46:34;24.70;39.90
38936;DHT22;66589;47.458;9.644;2023-03-23T11:49:07;24.60;39.90
38936;DHT22;66589;47.458;9.644;2023-03-23T11:51:59;24.60;40.30
38936;DHT22;66589;47.458;9.644;2023-03-23T11:54:57;24.50;42.20
38936;DHT22;66589;47.458;9.644;2023-03-23T11:57:25;24.30;41.70
38936;DHT22;66589;47.458;9.644;2023-03-23T11:59:53;24.20;44.20
38936;DHT22;66589;47.458;9.644;2023-03-23T12:05:20;23.60;44.50
38936;DHT22;66589;47.458;9.644;2023-03-23T12:18:59;23.30;48.00
38936;DHT22;66589;47.458;9.644;2023-03-23T12:21:46;23.30;45.20
38936;DHT22;66589;47.458;9.644;2023-03-23T12:27:26;23.40;43.90
38936;DHT22;66589;47.458;9.644;2023-03-23T12:47:14;22.70;45.70
38936;DHT22;66589;47.458;9.644;2023-03-23T13:02:32;22.80;44.10
38936;DHT22;66589;47.458;9.644;2023-03-23T13:05:25;22.80;44.80
38936;DHT22;66589;47.458;9.644;2023-03-23T13:08:00;22.60;44.60
38936;DHT22;66589;47.458;9.644;2023-03-23T13:10:47;22.70;44.10
38936;DHT22;66589;47.458;9.644;2023-03-23T13:13:25;22.50;44.80
38936;DHT22;66589;47.458;9.644;2023-03-23T13:15:58;22.70;45.90
38936;DHT22;66589;47.458;9.644;2023-03-23T13:23:43;23.10;45.90
38936;DHT22;66589;47.458;9.644;2023-03-23T13:26:17;23.20;47.20
38936;DHT22;66589;47.458;9.644;2023-03-23T13:28:57;23.30;46.20
38936;DHT22;66589;47.458;9.644;2023-03-23T13:31:27;23.20;46.90
38936;DHT22;66589;47.458;9.644;2023-03-23T13:34:04;23.10;46.40
38936;DHT22;66589;47.458;9.644;2023-03-23T13:36:42;23.00;46.10
38936;DHT22;66589;47.458;9.644;2023-03-23T13:39:47;22.80;46.50
38936;DHT22;66589;47.458;9.644;2023-03-23T13:52:37;22.30;45.50
38936;DHT22;66589;47.458;9.644;2023-03-23T13:57:52;22.30;46.90
38936;DHT22;66589;47.458;9.644;2023-03-23T14:00:43;22.20;46.80
38936;DHT22;66589;47.458;9.644;2023-03-23T14:03:14;21.90;46.00
38936;DHT22;66589;47.458;9.644;2023-03-23T14:05:49;21.80;46.40
38936;DHT22;66589;47.458;9.644;2023-03-23T14:11:01;21.70;46.70
38936;DHT22;66589;47.458;9.644;2023-03-23T14:13:44;21.70;47.50
38936;DHT22;66589;47.458;9.644;2023-03-23T14:16:15;21.70;47.50
38936;DHT22;66589;47.458;9.644;2023-03-23T14:18:47;21.80;46.50
38936;DHT22;66589;47.458;9.644;2023-03-23T14:21:21;21.80;46.40
38936;DHT22;66589;47.458;9.644;2023-03-23T14:23:47;21.80;46.20
38936;DHT22;66589;47.458;9.644;2023-03-23T14:26:17;21.70;46.10
38936;DHT22;66589;47.458;9.644;2023-03-23T14:28:45;21.50;47.00
38936;DHT22;66589;47.458;9.644;2023-03-23T14:33:43;21.30;46.80
38936;DHT22;66589;47.458;9.644;2023-03-23T14:36:09;21.20;46.80
38936;DHT22;66589;47.458;9.644;2023-03-23T14:38:35;21.20;46.90
38936;DHT22;66589;47.458;9.644;2023-03-23T14:41:05;21.30;47.00
38936;DHT22;66589;47.458;9.644;2023-03-23T14:43:32;21.20;47.10
38936;DHT22;66589;47.458;9.644;2023-03-23T14:46:01;21.10;48.00
38936;DHT22;66589;47.458;9.644;2023-03-23T14:48:30;21.00;49.30
38936;DHT22;66589;47.458;9.644;2023-03-23T14:51:01;21.00;50.70
38936;DHT22;66589;47.458;9.644;2023-03-23T14:56:01;20.70;49.10
38936;DHT22;66589;47.458;9.644;2023-03-23T14:58:28;20.60;49.30
38936;DHT22;66589;47.458;9.644;2023-03-23T15:03:22;20.50;48.60
38936;DHT22;66589;47.458;9.644;2023-03-23T15:06:00;20.40;48.90
38936;DHT22;66589;47.458;9.644;2023-03-23T15:08:33;20.40;49.00
38936;DHT22;66589;47.458;9.644;2023-03-23T15:13:32;20.30;48.70
38936;DHT22;66589;47.458;9.644;2023-03-23T15:16:07;20.30;48.20
38936;DHT22;66589;47.458;9.644;2023-03-23T15:18:39;20.30;49.40
38936;DHT22;66589;47.458;9.644;2023-03-23T15:21:28;20.40;48.90
38936;DHT22;66589;47.458;9.644;2023-03-23T15:23:54;20.50;52.50
38936;DHT22;66589;47.458;9.644;2023-03-23T15:29:22;20.60;52.30
38936;DHT22;66589;47.458;9.644;2023-03-23T15:31:56;20.50;52.40
38936;DHT22;66589;47.458;9.644;2023-03-23T15:34:28;20.10;53.90
38936;DHT22;66589;47.458;9.644;2023-03-23T15:37:03;19.90;53.00
38936;DHT22;66589;47.458;9.644;2023-03-23T15:39:31;19.60;53.10
38936;DHT22;66589;47.458;9.644;2023-03-23T15:41:58;19.40;54.40
38936;DHT22;66589;47.458;9.644;2023-03-23T15:44:33;19.40;54.90
38936;DHT22;66589;47.458;9.644;2023-03-23T15:47:18;19.40;55.40
38936;DHT22;66589;47.458;9.644;2023-03-23T15:49:45;19.40;56.40
38936;DHT22;66589;47.458;9.644;2023-03-23T15:52:12;19.30;55.70
38936;DHT22;66589;47.458;9.644;2023-03-23T15:54:38;19.30;56.20
38936;DHT22;66589;47.458;9.644;2023-03-23T15:57:11;19.20;57.40
38936;DHT22;66589;47.458;9.644;2023-03-23T15:59:36;19.20;57.00
38936;DHT22;66589;47.458;9.644;2023-03-23T16:02:03;19.00;56.20
38936;DHT22;66589;47.458;9.644;2023-03-23T16:04:28;19.00;55.90
38936;DHT22;66589;47.458;9.644;2023-03-23T16:06:55;19.00;55.30
38936;DHT22;66589;47.458;9.644;2023-03-23T16:09:23;19.00;54.90
38936;DHT22;66589;47.458;9.644;2023-03-23T16:11:49;19.00;54.20
38936;DHT22;66589;47.458;9.644;2023-03-23T16:14:14;18.90;55.40
38936;DHT22;66589;47.458;9.644;2023-03-23T16:16:44;18.90;55.00
38936;DHT22;66589;47.458;9.644;2023-03-23T16:19:12;18.90;55.60
38936;DHT22;66589;47.458;9.644;2023-03-23T16:21:39;18.80;54.40
38936;DHT22;66589;47.458;9.644;2023-03-23T16:24:05;18.70;55.50
38936;DHT22;66589;47.458;9.644;2023-03-23T16:26:32;18.80;54.40
38936;DHT22;66589;47.458;9.644;2023-03-23T16:28:58;18.80;55.20
38936;DHT22;66589;47.458;9.644;2023-03-23T16:31:24;18.80;55.20
38936;DHT22;66589;47.458;9.644;2023-03-23T16:33:49;18.80;55.30
38936;DHT22;66589;47.458;9.644;2023-03-23T16:36:15;18.80;54.40
38936;DHT22;66589;47.458;9.644;2023-03-23T16:38:41;18.80;55.20
38936;DHT22;66589;47.458;9.644;2023-03-23T16:41:07;18.70;54.90
38936;DHT22;66589;47.458;9.644;2023-03-23T16:43:34;18.70;54.70
38936;DHT22;66589;47.458;9.644;2023-03-23T16:45:59;18.70;54.50
38936;DHT22;66589;47.458;9.644;2023-03-23T16:48:25;18.60;54.70
38936;DHT22;66589;47.458;9.644;2023-03-23T16:50:51;18.50;55.30
38936;DHT22;66589;47.458;9.644;2023-03-23T16:53:20;18.30;56.20
38936;DHT22;66589;47.458;9.644;2023-03-23T16:55:46;18.10;56.80
38936;DHT22;66589;47.458;9.644;2023-03-23T16:58:14;17.90;57.60
38936;DHT22;66589;47.458;9.644;2023-03-23T17:00:41;17.80;57.70
38936;DHT22;66589;47.458;9.644;2023-03-23T17:03:07;17.70;57.90
38936;DHT22;66589;47.458;9.644;2023-03-23T17:05:35;17.50;58.10
38936;DHT22;66589;47.458;9.644;2023-03-23T17:08:01;17.50;58.20
38936;DHT22;66589;47.458;9.644;2023-03-23T17:10:27;17.40;57.90
38936;DHT22;66589;47.458;9.644;2023-03-23T17:12:54;17.50;57.80
38936;DHT22;66589;47.458;9.644;2023-03-23T17:15:20;17.40;58.90
38936;DHT22;66589;47.458;9.644;2023-03-23T17:17:48;17.40;58.40
38936;DHT22;66589;47.458;9.644;2023-03-23T17:20:14;17.40;58.70
38936;DHT22;66589;47.458;9.644;2023-03-23T17:22:40;17.50;58.60
38936;DHT22;66589;47.458;9.644;2023-03-23T17:25:07;17.50;58.20
38936;DHT22;66589;47.458;9.644;2023-03-23T17:27:34;17.50;58.50
38936;DHT22;66589;47.458;9.644;2023-03-23T17:30:00;17.50;58.40
38936;DHT22;66589;47.458;9.644;2023-03-23T17:32:25;17.50;58.20
38936;DHT22;66589;47.458;9.644;2023-03-23T17:34:51;17.50;58.90
38936;DHT22;66589;47.458;9.644;2023-03-23T17:37:19;17.50;59.20
38936;DHT22;66589;47.458;9.644;2023-03-23T17:39:45;17.50;59.30
38936;DHT22;66589;47.458;9.644;2023-03-23T17:42:11;17.40;58.10
38936;DHT22;66589;47.458;9.644;2023-03-23T17:44:37;17.40;58.50
38936;DHT22;66589;47.458;9.644;2023-03-23T17:47:03;17.40;58.50
38936;DHT22;66589;47.458;9.644;2023-03-23T17:49:29;17.40;58.90
38936;DHT22;66589;47.458;9.644;2023-03-23T17:51:58;17.40;58.60
38936;DHT22;66589;47.458;9.644;2023-03-23T17:54:25;17.40;58.70
38936;DHT22;66589;47.458;9.644;2023-03-23T17:56:51;17.30;58.90
38936;DHT22;66589;47.458;9.644;2023-03-23T17:59:17;17.30;59.00
38936;DHT22;66589;47.458;9.644;2023-03-23T18:01:43;17.20;60.80
38936;DHT22;66589;47.458;9.644;2023-03-23T18:04:12;17.10;60.10
38936;DHT22;66589;47.458;9.644;2023-03-23T18:06:37;17.20;60.00
38936;DHT22;66589;47.458;9.644;2023-03-23T18:09:03;17.10;59.80
38936;DHT22;66589;47.458;9.644;2023-03-23T18:11:30;17.00;59.70
38936;DHT22;66589;47.458;9.644;2023-03-23T18:13:55;17.10;59.50